createdAt,value
2023-04-10T09:38:17.752Z,1021.73
2023-04-10T09:53:17.720Z,1021.66
2023-04-10T10:08:17.777Z,1021.38
2023-04-10T10:23:17.833Z,1021.28
2023-04-10T10:38:18.593Z,1021.04
2023-04-10T10:53:18.983Z,1020.75
2023-04-10T11:08:19.212Z,1020.66
2023-04-10T11:23:19.223Z,1020.38
2023-04-10T11:38:19.833Z,1020.14
2023-04-10T11:53:20.119Z,1019.99
2023-04-10T12:08:20.749Z,1019.63
2023-04-10T12:23:21.471Z,1019.44
2023-04-10T12:38:21.620Z,1019.23
2023-04-10T12:53:23.036Z,1018.98
2023-04-10T13:08:23.006Z,1018.48
2023-04-10T13:23:23.485Z,1018.24
2023-04-10T13:38:23.272Z,1018.04
2023-04-10T13:53:23.514Z,1017.69
2023-04-10T14:08:24.263Z,1017.66
2023-04-10T14:23:25.716Z,1017.43
2023-04-10T14:38:26.225Z,1017.11
2023-04-10T14:53:27.463Z,1016.98
2023-04-10T15:08:27.927Z,1016.58
2023-04-10T15:23:28.094Z,1016.40
2023-04-10T15:38:28.566Z,1016.18
2023-04-10T15:53:29.408Z,1015.80
2023-04-10T16:08:29.156Z,1015.52
2023-04-10T16:23:29.647Z,1015.28
2023-04-10T16:38:30.614Z,1015.22
2023-04-10T16:53:30.965Z,1014.85
2023-04-10T17:08:31.854Z,1014.51
2023-04-10T17:23:32.539Z,1014.31
2023-04-10T17:38:33.273Z,1014.03
2023-04-10T17:53:33.608Z,1013.84
2023-04-10T18:08:33.675Z,1013.76
2023-04-10T18:23:34.067Z,1013.63
2023-04-10T18:38:34.415Z,1013.56
2023-04-10T18:53:34.892Z,1013.31
2023-04-10T19:08:35.684Z,1013.05
2023-04-10T19:23:35.311Z,1012.89
2023-04-10T19:38:36.327Z,1012.58
2023-04-10T19:53:36.556Z,1012.46
2023-04-10T20:08:37.119Z,1012.08
2023-04-10T20:23:37.181Z,1011.87
2023-04-10T20:38:38.764Z,1011.60
2023-04-10T20:53:39.443Z,1011.64
2023-04-10T21:08:40.001Z,1011.53
2023-04-10T21:23:40.627Z,1011.36
2023-04-10T21:38:40.696Z,1010.95
2023-04-10T21:53:40.794Z,1010.71
2023-04-10T22:08:42.658Z,1010.42
2023-04-10T22:23:42.681Z,1010.27
2023-04-10T22:38:43.297Z,1010.06
2023-04-10T22:53:43.434Z,1009.83
2023-04-10T23:08:43.609Z,1009.63
2023-04-10T23:23:43.596Z,1009.21
2023-04-10T23:38:44.188Z,1008.82
2023-04-10T23:53:44.852Z,1008.60
